Time;durP1;ratioP1;P1;durP2;ratioP2;P2;SDS_P1;SDS_P2;PMS_P1;PMS_P2;Temp;Humidity;BMP_temperature;BMP_pressure;BME280_temperature;BME280_humidity;BME280_pressure;Samples;Min_cycle;Max_cycle;Signal;HPM_P1;HPM_P2
2022/11/22 00:04:32;;;;;;;30.97;16.20;;;;;;;-1.89;100.00;94966.19;10412400;28;20573;-78
2022/11/22 00:09:32;;;;;;;28.47;14.80;;;;;;;-2.05;100.00;94978.63;10412412;28;20199;-77
2022/11/22 00:14:33;;;;;;;25.60;13.80;;;;;;;-2.23;100.00;94958.63;10412168;28;20193;-77
2022/11/22 00:19:34;;;;;;;21.93;12.93;;;;;;;-2.24;100.00;94951.88;10411758;28;20293;-76
2022/11/22 00:24:34;;;;;;;22.93;12.37;;;;;;;-2.05;100.00;94950.41;10411715;28;20552;-76
2022/11/22 00:29:35;;;;;;;28.47;13.23;;;;;;;-1.99;100.00;94949.91;10411346;28;20235;-75
2022/11/22 00:34:35;;;;;;;26.73;14.07;;;;;;;-2.10;100.00;94937.13;10393294;28;20200;-76
2022/11/22 00:39:36;;;;;;;26.77;14.20;;;;;;;-2.43;100.00;94933.75;10410972;28;20228;-77
2022/11/22 00:44:36;;;;;;;29.20;15.50;;;;;;;-2.60;100.00;94933.31;10410540;28;20185;-77
2022/11/22 00:49:36;;;;;;;25.50;13.40;;;;;;;-2.55;100.00;94954.28;10411123;28;20254;-76
2022/11/22 00:54:37;;;;;;;30.80;15.37;;;;;;;-2.51;100.00;94952.31;10410181;28;20199;-77
2022/11/22 00:59:37;;;;;;;25.63;14.27;;;;;;;-2.66;100.00;94946.63;10409905;28;20224;-76
2022/11/22 01:04:37;;;;;;;27.77;14.30;;;;;;;-2.83;100.00;94960.75;10408900;28;20220;-77
2022/11/22 01:09:38;;;;;;;32.53;15.73;;;;;;;-2.94;100.00;94958.16;10410383;28;20188;-76
2022/11/22 01:14:38;;;;;;;39.30;17.97;;;;;;;-2.98;100.00;94957.59;10409576;28;20726;-77
2022/11/22 01:19:40;;;;;;;28.57;14.10;;;;;;;-2.90;100.00;94946.75;10408996;28;20572;-76
2022/11/22 01:24:40;;;;;;;35.40;17.17;;;;;;;-2.72;100.00;94931.72;10409106;28;20194;-76
2022/11/22 01:29:40;;;;;;;35.57;16.90;;;;;;;-2.76;100.00;94920.06;10408809;28;20594;-77
2022/11/22 01:34:41;;;;;;;32.50;15.60;;;;;;;-2.81;100.00;94909.38;10409590;28;20262;-77
2022/11/22 01:39:41;;;;;;;34.50;17.07;;;;;;;-2.66;100.00;94922.72;10391312;28;20220;-76
2022/11/22 01:44:42;;;;;;;32.37;15.43;;;;;;;-2.92;100.00;94913.56;10408716;28;20219;-77
2022/11/22 01:50:04;;;;;;;31.90;16.53;;;;;;;-2.82;100.00;94918.00;10409143;28;20219;-77
2022/11/22 01:55:08;;;;;;;29.63;13.77;;;;;;;-3.01;100.00;94911.72;10374715;28;20193;-76
2022/11/22 02:00:15;;;;;;;22.13;10.60;;;;;;;-2.75;100.00;94912.25;10389722;28;20236;-76
2022/11/22 02:05:21;;;;;;;22.77;11.83;;;;;;;-2.82;100.00;94908.53;10407900;28;20657;-76
2022/11/22 02:10:24;;;;;;;22.47;11.73;;;;;;;-2.98;100.00;94900.44;10391352;28;20188;-76
2022/11/22 02:15:24;;;;;;;23.93;11.73;;;;;;;-3.04;100.00;94894.03;10391516;28;20193;-76
2022/11/22 02:20:25;;;;;;;26.50;13.87;;;;;;;-2.82;100.00;94903.41;10391155;28;20258;-77
2022/11/22 02:25:40;;;;;;;28.43;12.87;;;;;;;-2.78;100.00;94901.44;10374830;28;20197;-77
2022/11/22 02:30:40;;;;;;;20.87;11.00;;;;;;;-2.59;100.00;94914.47;10408320;28;20705;-77
2022/11/22 02:35:41;;;;;;;22.57;11.40;;;;;;;-2.64;100.00;94918.31;10377279;28;20184;-77
2022/11/22 02:40:45;;;;;;;20.93;11.03;;;;;;;-2.64;100.00;94915.75;10414965;28;20231;-77
2022/11/22 02:45:46;;;;;;;25.23;12.17;;;;;;;-2.55;100.00;94902.22;10397289;28;20727;-77
2022/11/22 02:50:46;;;;;;;23.83;12.67;;;;;;;-2.52;100.00;94886.59;10397232;28;20189;-77
2022/11/22 02:55:46;;;;;;;25.77;11.97;;;;;;;-2.37;100.00;94895.63;10414082;28;20715;-77
2022/11/22 03:00:47;;;;;;;24.77;11.77;;;;;;;-2.43;100.00;94885.84;10415357;28;20637;-77
2022/11/22 03:05:47;;;;;;;22.33;12.63;;;;;;;-2.57;100.00;94879.25;10414881;28;20192;-77
2022/11/22 03:10:48;;;;;;;45.43;16.63;;;;;;;-2.54;100.00;94889.28;10396991;28;20637;-77
2022/11/22 03:15:48;;;;;;;26.70;14.07;;;;;;;-2.71;100.00;94893.16;10415148;28;20539;-77
2022/11/22 03:20:48;;;;;;;26.07;13.97;;;;;;;-2.73;100.00;94905.25;10414378;28;20598;-78
2022/11/22 03:25:49;;;;;;;25.97;12.53;;;;;;;-2.94;100.00;94912.88;10414347;28;20188;-78
2022/11/22 03:30:49;;;;;;;26.07;13.03;;;;;;;-2.94;100.00;94912.88;10414233;28;20224;-76
2022/11/22 03:35:49;;;;;;;26.73;13.47;;;;;;;-2.87;100.00;94913.22;10413332;28;20250;-77
2022/11/22 03:40:50;;;;;;;24.97;13.63;;;;;;;-2.85;100.00;94895.97;10396195;28;20216;-77
2022/11/22 03:45:50;;;;;;;26.57;13.53;;;;;;;-2.75;100.00;94896.88;10412979;28;20196;-77
2022/11/22 03:50:51;;;;;;;26.13;13.47;;;;;;;-2.53;100.00;94901.16;10413488;28;20184;-77
2022/11/22 03:55:51;;;;;;;26.97;13.63;;;;;;;-2.51;100.00;94896.72;10395076;28;20648;-78
2022/11/22 04:00:51;;;;;;;26.27;13.30;;;;;;;-2.44;100.00;94899.59;10395421;28;20688;-77
2022/11/22 04:05:52;;;;;;;27.63;13.50;;;;;;;-2.52;100.00;94882.25;10411021;28;20563;-77
2022/11/22 04:10:52;;;;;;;23.77;11.43;;;;;;;-2.61;100.00;94861.69;10409632;28;20246;-77
2022/11/22 04:15:54;;;;;;;21.23;11.83;;;;;;;-2.46;100.00;94857.09;10410407;28;20196;-76
2022/11/22 04:26:13;;;;;;;16.33;8.63;;;;;;;-2.03;100.00;94836.47;10408986;28;20221;-77
2022/11/22 04:36:32;;;;;;;4.67;3.10;;;;;;;0.53;100.00;94809.09;10410026;28;20299;-78
2022/11/22 04:41:33;;;;;;;6.27;3.60;;;;;;;0.60;100.00;94786.19;10410198;28;20230;-77
2022/11/22 04:46:33;;;;;;;6.07;3.57;;;;;;;0.52;100.00;94781.75;10409609;28;20544;-77
2022/11/22 04:56:52;;;;;;;4.23;2.80;;;;;;;0.92;100.00;94754.00;10409330;28;20276;-78
2022/11/22 05:01:53;;;;;;;3.97;2.87;;;;;;;1.21;100.00;94729.75;10410605;28;20243;-78
2022/11/22 05:06:55;;;;;;;4.30;2.23;;;;;;;1.12;100.00;94740.94;10411073;28;20196;-77
2022/11/22 05:11:55;;;;;;;4.40;1.97;;;;;;;1.34;100.00;94745.66;10412152;28;20701;-77
2022/11/22 05:16:56;;;;;;;4.37;2.90;;;;;;;1.18;100.00;94746.34;10410967;28;20283;-76
2022/11/22 05:21:56;;;;;;;5.83;2.80;;;;;;;1.36;100.00;94750.69;10410429;28;20224;-77
2022/11/22 05:27:00;;;;;;;6.67;3.93;;;;;;;1.22;100.00;94770.06;10411726;28;20189;-74
2022/11/22 05:32:01;;;;;;;2.17;2.00;;;;;;;1.39;100.00;94764.09;10411006;28;20717;-76
2022/11/22 05:37:01;;;;;;;3.93;2.47;;;;;;;1.40;100.00;94763.13;10411042;28;20295;-77
2022/11/22 05:42:04;;;;;;;4.30;2.67;;;;;;;1.33;100.00;94769.03;10411112;28;20216;-77
2022/11/22 05:47:05;;;;;;;5.70;3.90;;;;;;;1.35;100.00;94772.28;10414477;28;20743;-76
2022/11/22 05:52:05;;;;;;;10.70;6.07;;;;;;;1.38;100.00;94775.38;10416486;28;20279;-77
2022/11/22 05:57:05;;;;;;;9.53;4.83;;;;;;;1.30;100.00;94772.69;10412435;28;20196;-76
2022/11/22 06:02:06;;;;;;;6.63;4.77;;;;;;;1.29;100.00;94778.00;10407270;28;20758;-76
2022/11/22 06:07:06;;;;;;;8.07;4.50;;;;;;;1.14;100.00;94785.47;10449662;28;20200;-75
2022/11/22 06:12:07;;;;;;;6.73;4.87;;;;;;;1.02;100.00;94810.63;10456780;28;20192;-76
2022/11/22 06:17:07;;;;;;;11.30;4.97;;;;;;;1.02;100.00;94802.91;10458073;28;20192;-76
2022/11/22 06:22:09;;;;;;;10.20;6.90;;;;;;;1.02;100.00;94811.44;10421489;28;20226;-76
2022/11/22 06:27:09;;;;;;;8.37;5.83;;;;;;;0.90;100.00;94802.28;10398573;28;20184;-76
2022/11/22 06:32:09;;;;;;;7.23;5.37;;;;;;;0.77;100.00;94804.41;10415467;28;20235;-76
2022/11/22 06:37:10;;;;;;;12.23;7.20;;;;;;;0.79;100.00;94812.81;10415624;28;20211;-76
2022/11/22 06:42:10;;;;;;;14.87;6.13;;;;;;;0.81;100.00;94822.03;10413972;28;20213;-76
2022/11/22 06:47:10;;;;;;;10.73;7.30;;;;;;;0.79;100.00;94830.84;10407677;28;20256;-76
2022/11/22 06:52:11;;;;;;;13.77;7.97;;;;;;;0.76;100.00;94828.56;10456536;28;20186;-76
2022/11/22 06:57:12;;;;;;;8.23;5.47;;;;;;;0.75;100.00;94829.50;10456012;28;20709;-76
2022/11/22 07:02:12;;;;;;;13.13;8.00;;;;;;;0.74;100.00;94820.16;10455382;28;20230;-76
2022/11/22 07:07:13;;;;;;;13.10;8.33;;;;;;;0.71;100.00;94829.78;10455678;28;20191;-76
2022/11/22 07:12:13;;;;;;;10.67;8.83;;;;;;;0.69;100.00;94828.31;10437604;28;20192;-77
2022/11/22 07:17:14;;;;;;;13.17;7.43;;;;;;;0.75;100.00;94832.06;10455376;28;20198;-77
2022/11/22 07:22:14;;;;;;;8.03;5.80;;;;;;;0.87;100.00;94842.06;10422604;28;20582;-78
2022/11/22 07:27:14;;;;;;;11.93;7.20;;;;;;;0.97;100.00;94854.91;10412919;28;20200;-78
2022/11/22 07:32:15;;;;;;;6.83;4.23;;;;;;;0.97;100.00;94860.06;10413355;28;20294;-78
2022/11/22 07:37:15;;;;;;;10.10;6.80;;;;;;;1.13;100.00;94866.34;10412956;28;20220;-78
2022/11/22 07:42:16;;;;;;;9.27;6.67;;;;;;;1.23;100.00;94859.38;10407867;28;20224;-77
2022/11/22 07:47:17;;;;;;;10.73;6.37;;;;;;;1.19;100.00;94866.56;10411680;28;20192;-77
2022/11/22 07:52:17;;;;;;;8.60;6.00;;;;;;;1.20;100.00;94868.22;10412798;28;20541;-77
2022/11/22 07:57:17;;;;;;;8.17;5.63;;;;;;;1.28;100.00;94864.91;10412593;28;20279;-77
2022/11/22 08:02:18;;;;;;;8.43;6.30;;;;;;;1.29;100.00;94860.56;10406504;28;20220;-77
2022/11/22 08:07:18;;;;;;;9.27;6.63;;;;;;;1.43;100.00;94871.19;10410471;28;20192;-75
2022/11/22 08:12:19;;;;;;;12.83;8.43;;;;;;;1.54;100.00;94880.50;10408221;28;20184;-75
2022/11/22 08:17:19;;;;;;;12.20;7.20;;;;;;;1.87;100.00;94885.13;10409034;28;20196;-76
2022/11/22 08:22:19;;;;;;;10.10;7.10;;;;;;;1.78;100.00;94879.13;10412186;28;20556;-76
2022/11/22 08:27:20;;;;;;;10.57;7.73;;;;;;;2.00;100.00;94898.50;10447917;28;20192;-76
2022/11/22 08:32:20;;;;;;;10.37;7.33;;;;;;;2.43;100.00;94907.22;10434611;28;20231;-77
2022/11/22 08:37:21;;;;;;;9.60;6.83;;;;;;;2.63;100.00;94913.03;10414254;28;20212;-77
2022/11/22 08:48:35;;;;;;;9.30;7.13;;;;;;;2.73;100.00;94931.03;10396990;28;20204;-76
2022/11/22 08:53:37;;;;;;;9.67;7.20;;;;;;;2.31;100.00;94935.09;10406426;28;20192;-76
2022/11/22 08:58:37;;;;;;;12.20;8.73;;;;;;;2.49;100.00;94936.81;10408088;28;20192;-76
2022/11/22 09:03:39;;;;;;;11.57;8.17;;;;;;;2.87;100.00;94952.13;10420636;28;20192;-76
2022/11/22 09:08:39;;;;;;;10.80;8.13;;;;;;;2.98;100.00;94957.03;10431551;28;20277;-77
2022/11/22 09:13:40;;;;;;;10.70;8.10;;;;;;;3.42;100.00;94975.03;10435703;28;20184;-76
2022/11/22 09:18:41;;;;;;;11.33;8.10;;;;;;;3.28;100.00;94975.59;10407686;28;20200;-76
2022/11/22 09:23:45;;;;;;;11.50;7.83;;;;;;;3.32;100.00;94963.97;10445189;28;20196;-76
2022/11/22 09:28:45;;;;;;;8.90;5.57;;;;;;;1.67;100.00;94993.72;10448539;28;20207;-76
2022/11/22 09:34:07;;;;;;;16.10;11.77;;;;;;;1.12;100.00;95016.88;10449002;28;20238;-77
2022/11/22 09:39:08;;;;;;;16.03;9.70;;;;;;;1.15;100.00;95012.25;10448716;28;20219;-77
2022/11/22 09:44:27;;;;;;;20.77;13.40;;;;;;;1.20;100.00;94991.22;10445945;28;20192;-77
2022/11/22 09:49:44;;;;;;;21.97;13.67;;;;;;;1.43;100.00;94981.34;10416339;28;20192;-77
2022/11/22 09:54:55;;;;;;;19.83;14.10;;;;;;;1.40;100.00;94979.03;10397700;28;20202;-77
2022/11/22 10:00:02;;;;;;;17.33;10.87;;;;;;;1.38;100.00;94979.19;10415872;28;20251;-77
2022/11/22 10:05:17;;;;;;;15.97;10.83;;;;;;;1.47;100.00;94981.84;10398158;28;20200;-77
2022/11/22 10:10:28;;;;;;;14.57;8.57;;;;;;;1.50;100.00;94981.56;10389105;28;20188;-77
2022/11/22 10:16:00;;;;;;;14.20;10.40;;;;;;;1.79;100.00;94989.16;10438537;28;20203;-78
2022/11/22 10:21:00;;;;;;;15.97;10.03;;;;;;;1.75;100.00;94993.78;10418552;28;20220;-77
2022/11/22 10:26:20;;;;;;;13.53;7.50;;;;;;;1.85;100.00;94996.31;10414084;28;20645;-77
2022/11/22 10:31:37;;;;;;;14.87;9.93;;;;;;;2.00;100.00;94990.66;10407105;28;20257;-77
2022/11/22 10:36:43;;;;;;;12.23;8.67;;;;;;;1.95;100.00;94986.75;10454766;28;20211;-77
2022/11/22 10:42:04;;;;;;;12.97;8.90;;;;;;;2.06;100.00;95001.22;10436679;28;20719;-77
2022/11/22 10:47:09;;;;;;;14.43;9.27;;;;;;;1.88;100.00;95010.72;10428149;28;20195;-77
2022/11/22 10:52:47;;;;;;;13.47;8.53;;;;;;;2.02;100.00;95010.22;10410822;28;20585;-77
2022/11/22 10:58:01;;;;;;;8.37;5.53;;;;;;;1.81;100.00;95009.66;10411517;28;20284;-78
2022/11/22 11:03:09;;;;;;;9.60;6.17;;;;;;;1.76;100.00;95007.50;10412688;28;20312;-77
2022/11/22 11:08:16;;;;;;;14.47;9.73;;;;;;;1.78;100.00;95024.47;10403796;28;20673;-78
2022/11/22 11:13:22;;;;;;;16.30;9.17;;;;;;;1.90;100.00;95025.09;10431987;28;20652;-77
2022/11/22 11:24:47;;;;;;;12.77;8.67;;;;;;;1.67;100.00;95006.63;10417806;28;20275;-81
2022/11/22 11:29:59;;;;;;;10.13;6.23;;;;;;;1.67;100.00;94995.47;10398293;28;20305;-79
2022/11/22 11:35:04;;;;;;;11.60;7.23;;;;;;;1.69;100.00;94996.97;10404341;28;20219;-80
2022/11/22 11:40:10;;;;;;;11.97;8.07;;;;;;;1.77;100.00;94984.13;10392511;28;20224;-80
2022/11/22 11:45:24;;;;;;;11.77;7.80;;;;;;;1.75;100.00;94972.34;10407785;28;20191;-78
2022/11/22 11:50:28;;;;;;;11.90;8.00;;;;;;;1.68;100.00;94977.25;10434261;28;20678;-79
2022/11/22 11:55:35;;;;;;;10.17;7.27;;;;;;;1.84;100.00;94979.22;10429157;28;20217;-79
2022/11/22 12:00:38;;;;;;;9.70;6.80;;;;;;;1.72;100.00;94991.50;10408327;28;20228;-79
2022/11/22 12:05:38;;;;;;;10.03;7.00;;;;;;;1.71;100.00;94989.88;10405464;28;20563;-79
2022/11/22 12:10:54;;;;;;;10.33;7.40;;;;;;;1.70;100.00;94985.69;10428976;28;20279;-80
2022/11/22 12:16:03;;;;;;;12.03;7.73;;;;;;;1.88;100.00;94993.44;10410862;28;20194;-78
2022/11/22 12:21:28;;;;;;;11.43;7.63;;;;;;;1.86;100.00;95007.47;10393557;28;20266;-79
2022/11/22 12:26:30;;;;;;;9.87;6.83;;;;;;;1.84;100.00;94992.13;10390851;28;20208;-78
2022/11/22 12:31:46;;;;;;;11.93;7.17;;;;;;;1.80;100.00;94995.94;10391728;28;20605;-79
2022/11/22 12:36:55;;;;;;;11.90;8.03;;;;;;;1.68;100.00;94999.69;10409366;28;20243;-78
2022/11/22 12:43:09;;;;;;;11.67;8.20;;;;;;;1.75;100.00;94995.56;10374459;28;20731;-79
2022/11/22 12:48:16;;;;;;;11.73;7.67;;;;;;;1.82;100.00;94998.38;10266261;28;20693;-80
2022/11/22 12:53:26;;;;;;;35.63;16.60;;;;;;;1.62;100.00;94995.91;10388973;28;20661;-79
2022/11/22 12:58:34;;;;;;;15.80;9.67;;;;;;;1.69;100.00;95001.31;10390508;28;20923;-79
2022/11/22 13:03:39;;;;;;;14.60;9.13;;;;;;;1.45;100.00;94992.31;10408276;28;20228;-80
2022/11/22 13:08:43;;;;;;;10.70;7.17;;;;;;;1.56;100.00;94994.72;10374416;28;20198;-78
2022/11/22 13:13:47;;;;;;;16.87;10.57;;;;;;;1.50;100.00;95003.03;10390371;28;20193;-79
2022/11/22 13:18:54;;;;;;;26.60;14.47;;;;;;;1.51;100.00;95001.25;10389572;28;20189;-81
2022/11/22 13:24:03;;;;;;;14.77;9.00;;;;;;;1.54;100.00;95008.72;10408094;28;20198;-78
2022/11/22 13:29:12;;;;;;;14.33;7.27;;;;;;;1.54;100.00;95014.69;10407279;28;20255;-80
2022/11/22 13:34:24;;;;;;;23.33;17.37;;;;;;;1.51;100.00;94996.91;10357236;28;20181;-79
2022/11/22 13:39:24;;;;;;;13.60;8.10;;;;;;;1.49;100.00;95006.56;10365779;28;20224;-78
2022/11/22 13:44:29;;;;;;;17.37;10.53;;;;;;;1.59;100.00;95002.19;10365100;28;20724;-80
2022/11/22 13:49:36;;;;;;;16.80;9.40;;;;;;;1.51;100.00;95009.81;10366220;28;20189;-80
2022/11/22 13:54:38;;;;;;;13.90;7.73;;;;;;;1.42;100.00;95008.09;10366038;28;20201;-79
2022/11/22 13:59:39;;;;;;;18.00;10.93;;;;;;;1.31;100.00;95008.28;10365917;28;20225;-79
2022/11/22 14:04:40;;;;;;;19.93;10.93;;;;;;;1.29;100.00;95005.84;10400875;28;20211;-79
2022/11/22 14:09:41;;;;;;;14.77;8.47;;;;;;;1.29;100.00;95005.84;10405930;28;20247;-80
2022/11/22 14:15:12;;;;;;;22.00;12.57;;;;;;;1.25;100.00;95001.91;10407663;28;20581;-79
2022/11/22 14:20:18;;;;;;;14.73;8.97;;;;;;;1.32;100.00;95000.38;10407058;28;20715;-79
2022/11/22 14:25:46;;;;;;;19.57;10.77;;;;;;;1.29;100.00;95010.16;10407298;28;20207;-80
2022/11/22 14:30:52;;;;;;;19.93;10.70;;;;;;;1.28;100.00;95009.34;10411328;28;20300;-79
2022/11/22 14:36:04;;;;;;;18.00;11.03;;;;;;;1.30;100.00;95012.59;10412619;28;20199;-78
2022/11/22 14:41:27;;;;;;;16.77;10.57;;;;;;;1.30;100.00;95017.75;10417444;28;20268;-80
2022/11/22 14:46:35;;;;;;;16.37;9.83;;;;;;;1.28;100.00;95011.13;10408216;28;20218;-79
2022/11/22 14:51:37;;;;;;;19.10;11.27;;;;;;;1.33;100.00;95012.34;10396819;28;20200;-79
2022/11/22 14:56:41;;;;;;;20.87;12.10;;;;;;;1.33;100.00;95017.50;10396383;28;20291;-79
2022/11/22 15:02:18;;;;;;;21.40;13.03;;;;;;;1.33;100.00;95011.50;10395968;28;20227;-79
2022/11/22 15:07:47;;;;;;;20.63;12.73;;;;;;;1.40;100.00;95010.00;10413091;28;20192;-78
2022/11/22 15:13:03;;;;;;;18.70;11.20;;;;;;;1.38;100.00;95014.50;10395591;28;20656;-80
2022/11/22 15:18:41;;;;;;;69.30;29.77;;;;;;;1.27;100.00;95018.03;10413144;28;20296;-81
2022/11/22 15:23:42;;;;;;;112.03;44.63;;;;;;;1.29;100.00;95041.13;10412705;28;20281;-80
2022/11/22 15:28:51;;;;;;;31.47;16.80;;;;;;;1.34;100.00;95049.25;10379547;28;20250;-78
2022/11/22 15:34:18;;;;;;;22.53;11.53;;;;;;;1.43;100.00;95053.56;10412421;28;20243;-79
2022/11/22 15:39:26;;;;;;;24.07;12.00;;;;;;;1.52;100.00;95049.34;10384842;28;20231;-79
2022/11/22 15:44:26;;;;;;;16.80;9.90;;;;;;;1.53;100.00;95058.69;10408872;28;20188;-79
2022/11/22 15:49:26;;;;;;;17.90;10.70;;;;;;;1.54;100.00;95061.13;10382398;28;20199;-79
2022/11/22 15:54:37;;;;;;;18.30;9.97;;;;;;;1.53;100.00;95067.28;10393988;28;20204;-79
2022/11/22 15:59:41;;;;;;;17.93;10.73;;;;;;;1.58;100.00;95067.66;10411670;28;20224;-79
2022/11/22 16:04:50;;;;;;;12.70;7.87;;;;;;;1.57;100.00;95067.78;10410207;28;20204;-80
2022/11/22 16:09:51;;;;;;;15.10;7.80;;;;;;;1.52;100.00;95065.63;10396866;28;20274;-79
2022/11/22 16:14:51;;;;;;;18.27;9.33;;;;;;;1.56;100.00;95059.25;10415973;28;20532;-79
2022/11/22 16:19:53;;;;;;;20.10;9.23;;;;;;;1.54;100.00;95050.81;10410964;28;20322;-78
2022/11/22 16:25:19;;;;;;;20.17;10.67;;;;;;;1.43;100.00;95058.75;10401600;28;20669;-81
2022/11/22 16:30:19;;;;;;;16.63;10.40;;;;;;;1.38;100.00;95066.91;10370158;28;20232;-78
2022/11/22 16:35:21;;;;;;;6.53;2.80;;;;;;;1.38;100.00;95079.00;10371268;28;20224;-79
2022/11/22 16:40:21;;;;;;;43.30;18.53;;;;;;;1.25;100.00;95077.50;10372683;28;20598;-79
2022/11/22 16:45:22;;;;;;;13.07;7.70;;;;;;;1.20;100.00;95089.22;10405362;28;20206;-79
2022/11/22 16:50:22;;;;;;;16.17;9.50;;;;;;;1.19;100.00;95093.53;10416874;28;20671;-80
2022/11/22 16:55:22;;;;;;;19.40;10.57;;;;;;;1.22;100.00;95106.16;10411265;28;20188;-80
2022/11/22 17:00:23;;;;;;;17.40;10.63;;;;;;;1.14;100.00;95108.63;10408010;28;20228;-78
2022/11/22 17:05:23;;;;;;;19.70;8.63;;;;;;;1.13;100.00;95119.88;10429744;28;20195;-78
2022/11/22 17:10:23;;;;;;;19.37;10.63;;;;;;;1.04;100.00;95121.53;10416702;28;20195;-79
2022/11/22 17:15:24;;;;;;;19.57;11.17;;;;;;;1.02;100.00;95133.75;10406852;28;20183;-79
2022/11/22 17:20:25;;;;;;;20.73;11.67;;;;;;;1.01;100.00;95128.72;10399288;28;20220;-81
2022/11/22 17:25:25;;;;;;;21.07;11.67;;;;;;;1.03;100.00;95129.41;10405811;28;20934;-79
2022/11/22 17:30:25;;;;;;;19.67;10.90;;;;;;;0.97;100.00;95125.63;10419305;28;20239;-79
2022/11/22 17:35:28;;;;;;;18.10;8.57;;;;;;;1.03;100.00;95139.72;10402644;28;20196;-77
2022/11/22 17:40:28;;;;;;;16.10;9.13;;;;;;;1.02;100.00;95136.31;10406801;28;20227;-78
2022/11/22 17:45:28;;;;;;;19.30;10.77;;;;;;;1.00;100.00;95153.69;10404554;28;20211;-79
2022/11/22 17:50:29;;;;;;;35.40;13.37;;;;;;;0.98;100.00;95167.66;10406060;28;20192;-79
2022/11/22 17:55:29;;;;;;;29.40;13.37;;;;;;;1.01;100.00;95168.22;10408120;28;20204;-80
2022/11/22 18:00:30;;;;;;;11.87;6.13;;;;;;;1.00;100.00;95166.59;10398594;28;20210;-79
2022/11/22 18:05:33;;;;;;;14.80;8.77;;;;;;;0.88;100.00;95163.31;10439187;28;20191;-78
2022/11/22 18:10:34;;;;;;;23.80;11.97;;;;;;;0.83;100.00;95175.00;10391510;28;20203;-80
2022/11/22 18:15:34;;;;;;;21.97;12.00;;;;;;;0.73;100.00;95180.13;10389831;28;20673;-80
2022/11/22 18:20:35;;;;;;;18.37;9.60;;;;;;;0.74;100.00;95174.03;10414047;28;20227;-80
2022/11/22 18:25:36;;;;;;;24.10;12.40;;;;;;;0.66;100.00;95187.59;10407533;28;20551;-79
2022/11/22 18:30:37;;;;;;;18.83;8.93;;;;;;;0.52;100.00;95185.38;10413740;28;20220;-80
2022/11/22 18:35:38;;;;;;;24.67;12.63;;;;;;;0.49;100.00;95208.84;10414742;28;20366;-79
2022/11/22 18:40:44;;;;;;;25.07;13.80;;;;;;;0.42;100.00;95212.91;10414351;28;20220;-80
2022/11/22 18:45:45;;;;;;;26.33;13.67;;;;;;;0.43;100.00;95214.50;10413622;28;20196;-80
2022/11/22 18:50:45;;;;;;;23.27;12.77;;;;;;;0.50;100.00;95206.13;10414030;28;20325;-80
2022/11/22 18:55:45;;;;;;;22.20;11.97;;;;;;;0.48;100.00;95218.34;10414088;28;20253;-80
2022/11/22 19:00:46;;;;;;;23.67;13.10;;;;;;;0.50;100.00;95219.00;10412669;28;20221;-80
2022/11/22 19:05:46;;;;;;;25.60;12.70;;;;;;;0.50;100.00;95215.63;10413356;28;20194;-80
2022/11/22 19:10:54;;;;;;;23.90;14.10;;;;;;;0.52;100.00;95212.00;10412408;28;20222;-80
2022/11/22 19:15:54;;;;;;;25.17;14.43;;;;;;;0.55;100.00;95223.78;10412122;28;20199;-79
2022/11/22 19:20:55;;;;;;;25.37;12.93;;;;;;;0.53;100.00;95225.69;10413114;28;20755;-80
2022/11/22 19:25:55;;;;;;;19.90;11.63;;;;;;;0.57;100.00;95232.19;10413283;28;20199;-80
2022/11/22 19:31:03;;;;;;;24.97;12.00;;;;;;;0.59;100.00;95235.44;10412639;28;20228;-80
2022/11/22 19:36:06;;;;;;;20.97;10.30;;;;;;;0.65;100.00;95242.66;10413478;28;20216;-79
2022/11/22 19:41:14;;;;;;;23.63;13.17;;;;;;;0.63;100.00;95246.31;10412078;28;20213;-80
2022/11/22 19:46:14;;;;;;;19.37;10.23;;;;;;;0.67;100.00;95256.25;10412885;28;20196;-80
2022/11/22 19:51:15;;;;;;;14.70;7.87;;;;;;;0.77;100.00;95260.59;10412994;28;20555;-79
2022/11/22 19:56:17;;;;;;;22.37;10.77;;;;;;;0.76;100.00;95257.19;10412479;28;20675;-79
2022/11/22 20:01:18;;;;;;;22.13;10.90;;;;;;;0.72;100.00;95250.69;10412718;28;20215;-79
2022/11/22 20:06:18;;;;;;;20.67;10.47;;;;;;;0.74;100.00;95253.94;10412080;28;20190;-79
2022/11/22 20:11:19;;;;;;;19.10;10.33;;;;;;;0.74;100.00;95253.94;10412017;28;20182;-79
2022/11/22 20:16:22;;;;;;;20.47;11.40;;;;;;;0.70;100.00;95258.56;10411732;28;20252;-80
2022/11/22 20:21:23;;;;;;;16.07;7.97;;;;;;;0.73;100.00;95265.19;10411605;28;20309;-79
2022/11/22 20:26:24;;;;;;;16.07;7.07;;;;;;;0.82;100.00;95271.31;10411695;28;20212;-80
2022/11/22 20:31:26;;;;;;;17.17;9.90;;;;;;;0.74;100.00;95266.84;10411108;28;20263;-80
2022/11/22 20:36:28;;;;;;;16.97;10.23;;;;;;;0.73;100.00;95270.34;10410448;28;20567;-80
2022/11/22 20:41:29;;;;;;;21.40;10.13;;;;;;;0.63;100.00;95272.91;10409353;28;20221;-80
2022/11/22 20:46:29;;;;;;;16.47;9.53;;;;;;;0.76;100.00;95279.59;10409580;28;20192;-80
2022/11/22 20:51:30;;;;;;;15.73;8.57;;;;;;;0.66;100.00;95272.66;10408850;28;20194;-80
2022/11/22 20:56:30;;;;;;;19.37;9.27;;;;;;;0.51;100.00;95279.91;10409389;28;20203;-79
2022/11/22 21:01:31;;;;;;;17.67;9.73;;;;;;;0.37;100.00;95267.41;10408465;28;20215;-80
2022/11/22 21:06:33;;;;;;;18.37;8.53;;;;;;;0.48;100.00;95274.22;10409000;28;20206;-80
2022/11/22 21:11:33;;;;;;;14.30;8.30;;;;;;;0.55;100.00;95275.31;10408658;28;20180;-80
2022/11/22 21:16:34;;;;;;;16.97;9.20;;;;;;;0.63;100.00;95280.63;10400586;28;20259;-80
2022/11/22 21:21:35;;;;;;;15.63;8.20;;;;;;;0.56;100.00;95279.53;10427373;28;20643;-80
2022/11/22 21:26:35;;;;;;;13.53;8.37;;;;;;;0.75;100.00;95277.94;10409642;28;20202;-79
2022/11/22 21:31:39;;;;;;;15.93;7.90;;;;;;;0.74;100.00;95274.56;10409091;28;20266;-79
2022/11/22 21:36:39;;;;;;;14.03;7.83;;;;;;;0.67;100.00;95278.59;10409118;28;20208;-79
2022/11/22 21:41:40;;;;;;;13.83;7.80;;;;;;;0.69;100.00;95277.53;10414756;28;20212;-80
2022/11/22 21:46:40;;;;;;;12.40;7.87;;;;;;;0.75;100.00;95283.09;10417634;28;20221;-80
2022/11/22 21:51:40;;;;;;;13.03;7.73;;;;;;;0.67;100.00;95279.44;10418439;28;20333;-79
2022/11/22 21:56:41;;;;;;;13.13;7.13;;;;;;;0.82;100.00;95281.63;10416735;28;20748;-79
2022/11/22 22:01:41;;;;;;;12.33;6.27;;;;;;;0.78;100.00;95282.84;10417382;28;20250;-80
2022/11/22 22:06:41;;;;;;;10.10;5.53;;;;;;;0.78;100.00;95278.53;10416729;28;20295;-79
2022/11/22 22:11:46;;;;;;;13.40;6.37;;;;;;;0.75;100.00;95276.19;10417324;28;20186;-79
2022/11/22 22:16:46;;;;;;;11.37;6.10;;;;;;;0.69;100.00;95282.69;10407803;28;20204;-79
2022/11/22 22:21:47;;;;;;;11.07;6.30;;;;;;;0.75;100.00;95285.69;10416350;28;20703;-79
2022/11/22 22:26:48;;;;;;;8.90;5.27;;;;;;;0.79;100.00;95294.78;10416455;28;20294;-79
2022/11/22 22:31:48;;;;;;;9.80;5.50;;;;;;;0.73;100.00;95290.97;10415841;28;20989;-79
2022/11/22 22:36:49;;;;;;;7.23;4.80;;;;;;;0.74;100.00;95286.66;10415689;28;20306;-79
2022/11/22 22:41:49;;;;;;;9.90;4.57;;;;;;;0.81;100.00;95300.63;10415855;28;20238;-79
2022/11/22 22:46:49;;;;;;;11.50;5.47;;;;;;;0.74;100.00;95300.34;10415451;28;20241;-79
2022/11/22 22:51:51;;;;;;;7.23;4.70;;;;;;;0.79;100.00;95298.16;10414452;28;20202;-79
2022/11/22 22:56:52;;;;;;;7.00;5.00;;;;;;;0.83;100.00;95291.00;10414627;28;20208;-79
2022/11/22 23:01:52;;;;;;;12.73;5.00;;;;;;;0.92;100.00;95297.97;10415232;28;20258;-79
2022/11/22 23:06:52;;;;;;;8.60;5.30;;;;;;;0.94;100.00;95295.25;10413470;28;20215;-79
2022/11/22 23:12:11;;;;;;;8.77;5.30;;;;;;;0.99;100.00;95296.47;10414922;28;20259;-79
2022/11/22 23:17:11;;;;;;;7.90;4.60;;;;;;;0.99;100.00;95291.31;10414066;28;20231;-79
2022/11/22 23:22:12;;;;;;;8.67;4.60;;;;;;;0.80;100.00;95292.09;10414175;28;20586;-79
2022/11/22 23:27:12;;;;;;;9.57;5.10;;;;;;;0.90;100.00;95292.09;10414129;28;20200;-79
2022/11/22 23:32:12;;;;;;;11.97;5.37;;;;;;;0.95;100.00;95304.59;10413440;28;20239;-77
2022/11/22 23:37:13;;;;;;;16.23;5.40;;;;;;;0.83;100.00;95301.31;10413877;28;20240;-77
2022/11/22 23:42:13;;;;;;;9.00;4.97;;;;;;;0.85;100.00;95302.81;10411912;28;20219;-79